createdAt,value
2023-01-13T00:00:16.382Z,6.97
2023-01-13T00:02:43.336Z,6.96
2023-01-13T00:05:10.922Z,6.92
2023-01-13T00:07:40.381Z,6.94
2023-01-13T00:10:09.948Z,6.95
2023-01-13T00:12:41.852Z,6.94
2023-01-13T00:15:09.858Z,6.94
2023-01-13T00:17:37.071Z,6.96
2023-01-13T00:20:04.274Z,6.96
2023-01-13T00:22:34.471Z,6.95
2023-01-13T00:25:01.711Z,6.95
2023-01-13T00:27:29.401Z,6.96
2023-01-13T00:29:56.277Z,6.96
2023-01-13T00:32:23.215Z,6.95
2023-01-13T00:34:50.096Z,6.96
2023-01-13T00:37:17.323Z,6.95
2023-01-13T00:39:44.323Z,6.96
2023-01-13T00:42:29.990Z,6.96
2023-01-13T00:44:56.960Z,6.95
2023-01-13T00:47:23.870Z,6.94
2023-01-13T00:49:50.715Z,6.94
2023-01-13T00:52:17.600Z,6.93
2023-01-13T00:54:44.489Z,6.94
2023-01-13T00:57:11.392Z,6.89
2023-01-13T00:59:38.248Z,6.91
2023-01-13T01:02:05.253Z,6.91
2023-01-13T01:04:32.237Z,6.91
2023-01-13T01:06:59.176Z,6.89
2023-01-13T01:09:32.739Z,6.89
2023-01-13T01:12:00.689Z,6.87
2023-01-13T01:14:28.345Z,6.85
2023-01-13T01:16:55.183Z,6.85
2023-01-13T01:19:22.018Z,6.85
2023-01-13T01:21:48.909Z,6.84
2023-01-13T01:24:16.825Z,6.88
2023-01-13T01:26:43.829Z,6.93
2023-01-13T01:29:17.428Z,6.94
2023-01-13T01:31:44.473Z,6.91
2023-01-13T01:34:11.436Z,6.78
2023-01-13T01:36:39.620Z,6.76
2023-01-13T01:39:07.047Z,6.73
2023-01-13T01:41:35.628Z,6.71
2023-01-13T01:44:28.436Z,6.71
2023-01-13T01:46:56.878Z,6.71
2023-01-13T01:49:32.693Z,6.69
2023-01-13T01:52:14.655Z,6.68
2023-01-13T01:54:52.397Z,6.67
2023-01-13T01:57:24.598Z,6.63
2023-01-13T01:59:51.610Z,6.62
2023-01-13T02:02:18.853Z,6.60
2023-01-13T02:04:51.244Z,6.60
2023-01-13T02:07:24.591Z,6.54
2023-01-13T02:09:52.985Z,6.52
2023-01-13T02:12:35.016Z,6.50
2023-01-13T02:15:13.171Z,6.50
2023-01-13T02:18:00.112Z,6.46
2023-01-13T02:20:50.179Z,6.43
2023-01-13T02:24:03.028Z,6.40
2023-01-13T02:27:04.535Z,6.39
2023-01-13T02:30:18.378Z,6.37
2023-01-13T02:33:00.267Z,6.35
2023-01-13T02:35:45.787Z,6.33
2023-01-13T02:38:15.387Z,6.34
2023-01-13T02:40:59.490Z,6.32
2023-01-13T02:43:51.295Z,6.29
2023-01-13T02:46:25.839Z,6.26
2023-01-13T02:48:56.141Z,6.25
2023-01-13T02:51:27.047Z,6.26
2023-01-13T02:53:59.715Z,6.28
2023-01-13T02:56:27.724Z,6.27
2023-01-13T02:58:57.567Z,6.27
2023-01-13T03:01:25.218Z,6.27
2023-01-13T03:03:52.126Z,6.28
2023-01-13T03:06:48.411Z,6.30
2023-01-13T03:09:22.898Z,6.30
2023-01-13T03:12:02.610Z,6.29
2023-01-13T03:14:46.323Z,6.29
2023-01-13T03:17:13.150Z,6.32
2023-01-13T03:19:55.605Z,6.27
2023-01-13T03:22:31.940Z,6.29
2023-01-13T03:25:22.894Z,6.30
2023-01-13T03:28:04.467Z,6.31
2023-01-13T03:30:42.796Z,6.30
2023-01-13T03:33:26.939Z,6.30
2023-01-13T03:35:59.158Z,6.27
2023-01-13T03:38:31.372Z,6.29
2023-01-13T03:41:04.283Z,6.26
2023-01-13T03:43:58.906Z,6.24
2023-01-13T03:46:55.641Z,6.24
2023-01-13T03:49:26.996Z,6.21
2023-01-13T03:51:58.699Z,6.18
2023-01-13T03:54:30.292Z,6.18
2023-01-13T03:57:02.491Z,6.17
2023-01-13T03:59:34.483Z,6.16
2023-01-13T04:02:10.825Z,6.13
2023-01-13T04:04:44.266Z,6.14
2023-01-13T04:07:26.240Z,6.11
2023-01-13T04:09:56.487Z,6.10
2023-01-13T04:12:27.263Z,6.09
2023-01-13T04:14:55.676Z,6.08
2023-01-13T04:17:24.698Z,6.05
2023-01-13T04:19:51.502Z,6.05
2023-01-13T04:22:18.350Z,6.04
2023-01-13T04:24:45.154Z,6.02
2023-01-13T04:27:11.938Z,6.02
2023-01-13T04:29:38.700Z,6.02
2023-01-13T04:32:05.606Z,6.02
2023-01-13T04:34:32.450Z,6.01
2023-01-13T04:36:59.259Z,6.02
2023-01-13T04:39:26.022Z,6.01
2023-01-13T04:41:58.597Z,6.02
2023-01-13T04:44:26.779Z,6.01
2023-01-13T04:46:53.903Z,6.02
2023-01-13T04:49:20.710Z,6.00
2023-01-13T04:51:47.841Z,6.00
2023-01-13T04:54:14.994Z,6.00
2023-01-13T04:56:41.961Z,6.01
2023-01-13T04:59:12.771Z,6.01
2023-01-13T05:01:39.864Z,6.02
2023-01-13T05:04:07.220Z,6.03
2023-01-13T05:06:34.474Z,6.03
2023-01-13T05:09:01.358Z,6.03
2023-01-13T05:11:46.565Z,6.03
2023-01-13T05:14:31.690Z,6.03
2023-01-13T05:17:01.019Z,6.04
2023-01-13T05:19:29.483Z,6.01
2023-01-13T05:22:14.764Z,6.02
2023-01-13T05:25:00.525Z,6.02
2023-01-13T05:27:27.605Z,6.01
2023-01-13T05:29:55.079Z,6.01
2023-01-13T05:32:22.410Z,6.01
2023-01-13T05:34:49.577Z,6.00
2023-01-13T05:37:16.861Z,6.04
2023-01-13T05:40:02.222Z,6.01
2023-01-13T05:42:47.744Z,6.01
2023-01-13T05:45:14.659Z,6.01
2023-01-13T05:47:41.459Z,6.00
2023-01-13T05:50:09.913Z,6.00
2023-01-13T05:52:36.773Z,6.00
2023-01-13T05:55:03.774Z,5.99
2023-01-13T05:57:30.561Z,5.99
2023-01-13T05:59:57.464Z,6.00
2023-01-13T06:02:24.858Z,5.96
2023-01-13T06:04:51.694Z,5.98
2023-01-13T06:07:18.500Z,5.96
2023-01-13T06:09:45.323Z,5.96
2023-01-13T06:12:13.195Z,5.95
2023-01-13T06:14:40.279Z,5.95
2023-01-13T06:17:12.404Z,5.95
2023-01-13T06:19:39.380Z,5.93
2023-01-13T06:22:28.446Z,5.92
2023-01-13T06:24:55.248Z,5.92
2023-01-13T06:27:23.102Z,5.91
2023-01-13T06:29:49.994Z,5.90
2023-01-13T06:32:21.174Z,5.87
2023-01-13T06:34:52.610Z,5.87
2023-01-13T06:37:25.407Z,5.85
2023-01-13T06:39:58.181Z,5.83
2023-01-13T06:42:51.218Z,5.83
2023-01-13T06:45:18.537Z,5.84
2023-01-13T06:47:45.355Z,5.83
2023-01-13T06:50:12.440Z,5.85
2023-01-13T06:52:39.234Z,5.85
2023-01-13T06:55:06.293Z,5.86
2023-01-13T06:57:33.059Z,5.84
2023-01-13T06:59:59.837Z,5.85
2023-01-13T07:02:28.383Z,5.84
2023-01-13T07:04:55.261Z,5.86
2023-01-13T07:07:22.066Z,5.84
2023-01-13T07:09:48.908Z,5.85
2023-01-13T07:12:15.907Z,5.86
2023-01-13T07:15:01.220Z,5.82
2023-01-13T07:17:28.029Z,5.82
2023-01-13T07:19:54.828Z,5.82
2023-01-13T07:22:21.617Z,5.82
2023-01-13T07:24:48.405Z,5.81
2023-01-13T07:27:15.168Z,5.82
2023-01-13T07:29:42.027Z,5.84
2023-01-13T07:32:08.862Z,5.84
2023-01-13T07:34:36.054Z,5.84
2023-01-13T07:37:02.829Z,5.88
2023-01-13T07:39:29.630Z,5.87
2023-01-13T07:42:14.875Z,5.89
2023-01-13T07:44:41.785Z,5.91
2023-01-13T07:47:10.546Z,5.95
2023-01-13T07:49:37.376Z,5.97
2023-01-13T07:52:04.447Z,5.98
2023-01-13T07:54:40.200Z,6.00
2023-01-13T07:57:09.260Z,6.04
2023-01-13T07:59:36.107Z,6.04
2023-01-13T08:02:03.229Z,6.07
2023-01-13T08:04:30.143Z,6.08
2023-01-13T08:06:56.932Z,6.10
2023-01-13T08:09:23.908Z,6.12
2023-01-13T08:12:14.372Z,6.14
2023-01-13T08:14:41.335Z,6.17
2023-01-13T08:17:09.727Z,6.19
2023-01-13T08:19:36.641Z,6.22
2023-01-13T08:22:03.565Z,6.26
2023-01-13T08:24:30.356Z,6.26
2023-01-13T08:26:57.173Z,6.29
2023-01-13T08:29:23.953Z,6.30
2023-01-13T08:31:50.703Z,6.32
2023-01-13T08:34:17.531Z,6.33
2023-01-13T08:36:44.371Z,6.38
2023-01-13T08:39:11.135Z,6.37
2023-01-13T08:42:04.133Z,6.39
2023-01-13T08:44:32.537Z,6.43
2023-01-13T08:46:59.608Z,6.44
2023-01-13T08:49:26.438Z,6.48
2023-01-13T08:51:53.638Z,6.51
2023-01-13T08:54:21.031Z,6.53
2023-01-13T08:56:48.552Z,6.57
2023-01-13T08:59:18.158Z,6.60
2023-01-13T09:01:45.491Z,6.62
2023-01-13T09:04:21.887Z,6.66
2023-01-13T09:06:49.884Z,6.71
2023-01-13T09:09:16.907Z,6.75
2023-01-13T09:12:05.940Z,6.80
2023-01-13T09:14:35.193Z,6.85
2023-01-13T09:17:02.214Z,6.87
2023-01-13T09:19:29.596Z,6.93
2023-01-13T09:21:57.528Z,6.99
2023-01-13T09:24:24.937Z,7.03
2023-01-13T09:26:52.245Z,7.07
2023-01-13T09:29:19.822Z,7.12
2023-01-13T09:31:46.721Z,7.17
2023-01-13T09:34:38.440Z,7.22
2023-01-13T09:37:07.069Z,7.27
2023-01-13T09:39:35.214Z,7.33
2023-01-13T09:42:54.281Z,7.38
2023-01-13T09:45:51.291Z,7.43
2023-01-13T09:48:28.282Z,7.50
2023-01-13T09:51:14.624Z,7.53
2023-01-13T09:53:49.714Z,7.58
2023-01-13T09:56:16.564Z,7.63
2023-01-13T09:58:45.686Z,7.66
2023-01-13T10:01:24.843Z,7.69
2023-01-13T10:03:51.732Z,7.75
2023-01-13T10:06:23.582Z,7.78
2023-01-13T10:08:50.973Z,7.81
2023-01-13T10:11:38.613Z,7.86
2023-01-13T10:14:27.312Z,7.89
2023-01-13T10:17:18.155Z,7.93
2023-01-13T10:20:18.321Z,7.98
2023-01-13T10:22:47.832Z,8.01
2023-01-13T10:25:36.404Z,8.06
2023-01-13T10:28:11.166Z,8.10
2023-01-13T10:30:41.247Z,8.13
2023-01-13T10:33:20.810Z,8.16
2023-01-13T10:36:01.207Z,8.19
2023-01-13T10:38:41.802Z,8.22
2023-01-13T10:41:14.757Z,8.27
2023-01-13T10:44:04.184Z,8.30
2023-01-13T10:46:53.382Z,8.32
2023-01-13T10:49:28.448Z,8.36
2023-01-13T10:51:55.387Z,8.39
2023-01-13T10:54:24.548Z,8.42
2023-01-13T10:57:15.102Z,8.45
2023-01-13T10:59:42.188Z,8.48
2023-01-13T11:02:24.175Z,8.49
2023-01-13T11:04:55.171Z,8.50
2023-01-13T11:07:38.565Z,8.55
2023-01-13T11:10:23.779Z,8.57
2023-01-13T11:12:53.578Z,8.61
2023-01-13T11:15:25.185Z,8.63
2023-01-13T11:18:01.713Z,8.66
2023-01-13T11:20:37.059Z,8.68
2023-01-13T11:23:17.522Z,8.70
2023-01-13T11:25:49.160Z,8.71
2023-01-13T11:28:15.896Z,8.72
2023-01-13T11:30:56.803Z,8.74
2023-01-13T11:33:32.455Z,8.76
2023-01-13T11:36:13.582Z,8.76
2023-01-13T11:38:48.109Z,8.77
2023-01-13T11:41:30.602Z,8.79
2023-01-13T11:44:06.841Z,8.80
2023-01-13T11:46:33.900Z,8.80
2023-01-13T11:49:01.179Z,8.82
2023-01-13T11:51:36.481Z,8.82
2023-01-13T11:54:06.190Z,8.82
2023-01-13T11:56:40.461Z,8.81
2023-01-13T11:59:27.778Z,8.83
2023-01-13T12:02:00.521Z,8.85
2023-01-13T12:04:43.807Z,8.84
2023-01-13T12:07:35.134Z,8.86
2023-01-13T12:10:30.300Z,8.86
2023-01-13T12:13:09.775Z,8.87
2023-01-13T12:15:54.961Z,8.88
2023-01-13T12:18:43.241Z,8.89
2023-01-13T12:21:12.728Z,8.90
2023-01-13T12:23:56.098Z,8.90
2023-01-13T12:26:23.764Z,8.91
2023-01-13T12:29:01.429Z,8.91
2023-01-13T12:31:29.101Z,8.93
2023-01-13T12:34:14.700Z,8.94
2023-01-13T12:37:02.432Z,8.95
2023-01-13T12:40:03.083Z,8.96
2023-01-13T12:43:23.153Z,8.96
2023-01-13T12:45:50.007Z,8.96
2023-01-13T12:48:45.829Z,9.00
2023-01-13T12:51:27.706Z,8.99
2023-01-13T12:53:56.450Z,9.00
2023-01-13T12:56:36.534Z,9.00
2023-01-13T12:59:19.140Z,9.01
2023-01-13T13:01:48.628Z,9.02
2023-01-13T13:04:38.099Z,9.04
2023-01-13T13:07:10.479Z,9.06
2023-01-13T13:09:44.918Z,9.08
2023-01-13T13:12:49.057Z,9.10
2023-01-13T13:15:27.799Z,9.12
2023-01-13T13:18:03.661Z,9.14
2023-01-13T13:20:54.643Z,9.16
2023-01-13T13:23:27.502Z,9.17
2023-01-13T13:26:21.791Z,9.18
2023-01-13T13:29:19.764Z,9.20
2023-01-13T13:32:21.208Z,9.20
2023-01-13T13:35:05.843Z,9.20
2023-01-13T13:38:28.448Z,9.19
2023-01-13T13:41:13.949Z,9.19
2023-01-13T13:44:01.809Z,9.18
2023-01-13T13:46:47.141Z,9.17
2023-01-13T13:49:42.904Z,9.17
2023-01-13T13:52:26.290Z,9.16
2023-01-13T13:54:58.509Z,9.17
2023-01-13T13:57:49.924Z,9.16
2023-01-13T14:00:30.723Z,9.14
2023-01-13T14:03:01.522Z,9.13
2023-01-13T14:05:34.121Z,9.12
2023-01-13T14:08:14.723Z,9.11
2023-01-13T14:10:44.899Z,9.12
2023-01-13T14:13:22.384Z,9.11
2023-01-13T14:16:04.277Z,9.12
2023-01-13T14:18:34.365Z,9.10
2023-01-13T14:21:14.699Z,9.09
2023-01-13T14:24:01.577Z,9.07
2023-01-13T14:26:31.121Z,9.06
2023-01-13T14:29:03.345Z,9.06
2023-01-13T14:31:31.466Z,9.04
2023-01-13T14:34:01.292Z,9.03
2023-01-13T14:36:34.185Z,9.02
2023-01-13T14:39:03.696Z,9.01
2023-01-13T14:41:51.063Z,9.00
2023-01-13T14:44:25.131Z,8.98
2023-01-13T14:46:55.230Z,8.98
2023-01-13T14:49:42.414Z,8.94
2023-01-13T14:52:21.368Z,8.93
2023-01-13T14:55:10.102Z,8.90
2023-01-13T14:57:39.614Z,8.88
2023-01-13T15:00:08.138Z,8.87
2023-01-13T15:03:13.906Z,8.84
2023-01-13T15:05:45.585Z,8.83
2023-01-13T15:08:13.980Z,8.82
2023-01-13T15:10:54.604Z,8.81
2023-01-13T15:13:35.567Z,8.78
2023-01-13T15:16:08.136Z,8.79
2023-01-13T15:18:39.977Z,8.78
2023-01-13T15:21:08.328Z,8.76
2023-01-13T15:23:36.025Z,8.76
2023-01-13T15:26:03.026Z,8.75
2023-01-13T15:28:31.985Z,8.72
2023-01-13T15:31:03.912Z,8.71
2023-01-13T15:33:30.930Z,8.69
2023-01-13T15:35:57.864Z,8.69
2023-01-13T15:38:25.079Z,8.69
2023-01-13T15:40:52.562Z,8.67
2023-01-13T15:43:42.259Z,8.65
2023-01-13T15:46:37.743Z,8.65
2023-01-13T15:49:12.867Z,8.66
2023-01-13T15:51:40.280Z,8.65
2023-01-13T15:54:08.744Z,8.64
2023-01-13T15:56:39.200Z,8.63
2023-01-13T15:59:10.728Z,8.60
2023-01-13T16:01:37.567Z,8.59
2023-01-13T16:04:04.516Z,8.61
2023-01-13T16:06:33.026Z,8.60
2023-01-13T16:08:59.895Z,8.59
2023-01-13T16:11:26.699Z,8.58
2023-01-13T16:13:53.538Z,8.56
2023-01-13T16:16:26.264Z,8.54
2023-01-13T16:18:54.338Z,8.53
2023-01-13T16:21:22.050Z,8.52
2023-01-13T16:23:50.672Z,8.51
2023-01-13T16:26:23.635Z,8.48
2023-01-13T16:28:52.649Z,8.49
2023-01-13T16:31:27.402Z,8.47
2023-01-13T16:33:54.316Z,8.47
2023-01-13T16:36:22.243Z,8.46
2023-01-13T16:38:50.934Z,8.45
2023-01-13T16:41:19.443Z,8.42
2023-01-13T16:43:47.592Z,8.43
2023-01-13T16:46:19.012Z,8.43
2023-01-13T16:48:46.711Z,8.42
2023-01-13T16:51:13.605Z,8.42
2023-01-13T16:53:40.487Z,8.41
2023-01-13T16:56:28.433Z,8.38
2023-01-13T16:58:58.044Z,8.39
2023-01-13T17:01:32.852Z,8.40
2023-01-13T17:04:01.187Z,8.38
2023-01-13T17:06:33.272Z,8.38
2023-01-13T17:09:15.775Z,8.34
2023-01-13T17:11:42.693Z,8.35
2023-01-13T17:14:18.476Z,8.30
2023-01-13T17:16:47.284Z,8.29
2023-01-13T17:19:14.675Z,8.25
2023-01-13T17:21:42.402Z,8.22
2023-01-13T17:24:12.315Z,8.22
2023-01-13T17:26:49.351Z,8.22
2023-01-13T17:29:22.612Z,8.20
2023-01-13T17:31:50.797Z,8.19
2023-01-13T17:34:19.049Z,8.18
2023-01-13T17:36:46.268Z,8.18
2023-01-13T17:39:18.584Z,8.16
2023-01-13T17:41:46.125Z,8.17
2023-01-13T17:44:14.650Z,8.16
2023-01-13T17:46:42.526Z,8.14
2023-01-13T17:49:12.062Z,8.11
2023-01-13T17:51:40.191Z,8.10
2023-01-13T17:54:07.863Z,8.13
2023-01-13T17:56:34.781Z,8.12
2023-01-13T17:59:02.037Z,8.10
2023-01-13T18:01:32.908Z,8.10
2023-01-13T18:04:01.263Z,8.07
2023-01-13T18:06:29.608Z,8.08
2023-01-13T18:08:59.196Z,8.08
2023-01-13T18:11:27.380Z,8.08
2023-01-13T18:13:56.930Z,8.07
2023-01-13T18:16:25.314Z,8.05
2023-01-13T18:19:18.038Z,8.02
2023-01-13T18:22:05.861Z,8.02
2023-01-13T18:24:52.761Z,8.01
2023-01-13T18:27:27.815Z,8.00
2023-01-13T18:29:57.412Z,7.98
2023-01-13T18:32:31.423Z,7.96
2023-01-13T18:35:06.769Z,7.97
2023-01-13T18:37:42.277Z,7.96
2023-01-13T18:40:12.582Z,7.92
2023-01-13T18:42:52.332Z,7.92
2023-01-13T18:45:24.839Z,7.93
2023-01-13T18:47:54.758Z,7.91
2023-01-13T18:50:23.248Z,7.92
2023-01-13T18:52:51.604Z,7.90
2023-01-13T18:55:19.210Z,7.89
2023-01-13T18:57:46.914Z,7.90
2023-01-13T19:00:18.142Z,7.86
2023-01-13T19:02:47.748Z,7.89
2023-01-13T19:05:15.370Z,7.90
2023-01-13T19:07:50.635Z,7.90
2023-01-13T19:10:18.554Z,7.90
2023-01-13T19:12:46.472Z,7.88
2023-01-13T19:15:13.977Z,7.89
2023-01-13T19:17:41.936Z,7.88
2023-01-13T19:20:11.710Z,7.87
2023-01-13T19:22:39.011Z,7.86
2023-01-13T19:25:06.226Z,7.87
2023-01-13T19:27:33.851Z,7.87
2023-01-13T19:30:01.785Z,7.85
2023-01-13T19:32:31.017Z,7.85
2023-01-13T19:34:59.850Z,7.86
2023-01-13T19:37:30.446Z,7.87
2023-01-13T19:39:59.233Z,7.86
2023-01-13T19:42:46.099Z,7.87
2023-01-13T19:45:27.762Z,7.86
2023-01-13T19:48:02.029Z,7.88
2023-01-13T19:50:29.910Z,7.84
2023-01-13T19:52:58.433Z,7.84
2023-01-13T19:55:26.182Z,7.80
2023-01-13T19:57:53.359Z,7.81
2023-01-13T20:00:21.273Z,7.81
2023-01-13T20:02:52.098Z,7.80
2023-01-13T20:05:22.806Z,7.81
2023-01-13T20:07:51.070Z,7.80
2023-01-13T20:10:20.795Z,7.78
2023-01-13T20:12:48.259Z,7.78
2023-01-13T20:15:16.161Z,7.78
2023-01-13T20:17:44.090Z,7.77
2023-01-13T20:20:12.462Z,7.77
2023-01-13T20:22:40.491Z,7.79
2023-01-13T20:25:08.750Z,7.78
2023-01-13T20:27:36.127Z,7.77
2023-01-13T20:30:04.568Z,7.73
2023-01-13T20:32:32.354Z,7.75
2023-01-13T20:34:59.776Z,7.73
2023-01-13T20:37:27.185Z,7.74
2023-01-13T20:39:55.725Z,7.74
2023-01-13T20:42:40.165Z,7.72
2023-01-13T20:45:08.377Z,7.69
2023-01-13T20:47:35.736Z,7.69
2023-01-13T20:50:03.252Z,7.68
2023-01-13T20:52:30.692Z,7.65
2023-01-13T20:54:57.509Z,7.65
2023-01-13T20:57:24.863Z,7.64
2023-01-13T20:59:52.356Z,7.64
2023-01-13T21:02:20.698Z,7.58
2023-01-13T21:04:48.596Z,7.59
2023-01-13T21:07:15.656Z,7.58
2023-01-13T21:09:42.670Z,7.56
2023-01-13T21:12:32.428Z,7.55
2023-01-13T21:15:17.976Z,7.54
2023-01-13T21:18:04.146Z,7.50
2023-01-13T21:20:33.607Z,7.50
2023-01-13T21:23:02.156Z,7.46
2023-01-13T21:25:30.212Z,7.44
2023-01-13T21:28:06.048Z,7.42
2023-01-13T21:30:33.601Z,7.42
2023-01-13T21:33:00.942Z,7.37
2023-01-13T21:35:27.907Z,7.36
2023-01-13T21:37:54.746Z,7.37
2023-01-13T21:40:21.532Z,7.37
2023-01-13T21:43:06.913Z,7.36
2023-01-13T21:45:52.614Z,7.35
2023-01-13T21:48:19.404Z,7.32
2023-01-13T21:50:46.267Z,7.29
2023-01-13T21:53:13.053Z,7.27
2023-01-13T21:55:39.977Z,7.24
2023-01-13T21:58:12.422Z,7.22
2023-01-13T22:00:43.084Z,7.21
2023-01-13T22:03:12.447Z,7.21
2023-01-13T22:05:40.090Z,7.19
2023-01-13T22:08:07.665Z,7.19
2023-01-13T22:10:34.720Z,7.19
2023-01-13T22:13:22.524Z,7.15
2023-01-13T22:15:49.562Z,7.11
2023-01-13T22:18:18.319Z,7.09
2023-01-13T22:20:46.258Z,7.07
2023-01-13T22:23:13.633Z,7.04
2023-01-13T22:25:40.488Z,7.05
2023-01-13T22:28:09.241Z,7.01
2023-01-13T22:30:36.241Z,6.99
2023-01-13T22:33:03.487Z,6.96
2023-01-13T22:35:30.341Z,6.93
2023-01-13T22:37:57.851Z,6.93
2023-01-13T22:40:24.833Z,6.92
2023-01-13T22:42:51.684Z,6.93
2023-01-13T22:45:18.555Z,6.92
2023-01-13T22:47:45.408Z,6.88
2023-01-13T22:50:12.712Z,6.90
2023-01-13T22:52:39.897Z,6.87
2023-01-13T22:55:07.663Z,6.87
2023-01-13T22:57:46.685Z,6.88
2023-01-13T23:00:15.099Z,6.87
2023-01-13T23:02:42.238Z,6.87
2023-01-13T23:05:09.321Z,6.83
2023-01-13T23:07:36.264Z,6.81
2023-01-13T23:10:04.373Z,6.79
2023-01-13T23:12:31.286Z,6.79
2023-01-13T23:14:58.064Z,6.76
2023-01-13T23:17:24.953Z,6.74
2023-01-13T23:19:51.775Z,6.72
2023-01-13T23:22:18.847Z,6.70
2023-01-13T23:24:46.115Z,6.67
2023-01-13T23:27:12.990Z,6.63
2023-01-13T23:29:39.920Z,6.63
2023-01-13T23:32:06.822Z,6.62
2023-01-13T23:34:33.616Z,6.59
2023-01-13T23:37:00.432Z,6.61
2023-01-13T23:39:27.306Z,6.59
2023-01-13T23:41:54.563Z,6.58
2023-01-13T23:44:21.477Z,6.57
2023-01-13T23:46:48.270Z,6.58
2023-01-13T23:49:15.131Z,6.59
2023-01-13T23:51:41.988Z,6.57
2023-01-13T23:54:08.827Z,6.56
2023-01-13T23:56:39.344Z,6.53
2023-01-13T23:59:07.270Z,6.51
